createdAt,value
2023-03-17T00:02:17.265Z,6.20
2023-03-17T00:04:45.314Z,6.00
2023-03-17T00:07:23.529Z,6.00
2023-03-17T00:14:21.336Z,6.10
2023-03-17T00:16:49.725Z,6.00
2023-03-17T00:19:18.118Z,5.90
2023-03-17T00:21:46.792Z,5.90
2023-03-17T00:24:16.734Z,6.00
2023-03-17T00:26:47.286Z,5.90
2023-03-17T00:29:15.693Z,5.90
2023-03-17T00:34:37.763Z,5.80
2023-03-17T00:37:05.264Z,5.80
2023-03-17T00:39:32.609Z,5.80
2023-03-17T00:42:02.712Z,5.70
2023-03-17T00:44:30.329Z,5.80
2023-03-17T00:46:59.718Z,5.80
2023-03-17T00:49:27.688Z,5.80
2023-03-17T00:56:59.599Z,5.80
2023-03-17T00:59:30.586Z,6.00
2023-03-17T01:01:58.353Z,6.00
2023-03-17T01:04:28.369Z,5.90
2023-03-17T01:06:55.667Z,6.00
2023-03-17T01:09:26.761Z,6.00
2023-03-17T01:11:55.418Z,6.00
2023-03-17T01:19:27.702Z,6.00
2023-03-17T01:21:58.522Z,5.90
2023-03-17T01:24:28.305Z,5.90
2023-03-17T01:26:55.987Z,5.90
2023-03-17T01:29:23.258Z,6.00
2023-03-17T01:31:58.289Z,5.90
2023-03-17T01:34:34.069Z,5.90
2023-03-17T01:42:07.131Z,6.00
2023-03-17T01:44:34.815Z,5.90
2023-03-17T01:47:06.622Z,5.90
2023-03-17T01:49:36.918Z,5.90
2023-03-17T01:52:09.609Z,5.70
2023-03-17T01:54:43.164Z,5.80
2023-03-17T01:57:16.918Z,5.80
2023-03-17T02:04:52.605Z,5.80
2023-03-17T02:07:20.709Z,5.70
2023-03-17T02:09:50.689Z,5.70
2023-03-17T02:12:21.757Z,5.60
2023-03-17T02:14:52.129Z,5.60
2023-03-17T02:17:25.314Z,5.60
2023-03-17T02:19:58.368Z,5.60
2023-03-17T02:25:20.956Z,5.70
2023-03-17T02:27:51.766Z,5.70
2023-03-17T02:30:21.851Z,5.60
2023-03-17T02:32:50.061Z,5.70
2023-03-17T02:35:20.089Z,5.70
2023-03-17T02:37:47.315Z,5.70
2023-03-17T02:40:19.209Z,5.70
2023-03-17T02:45:32.002Z,5.60
2023-03-17T02:48:02.958Z,5.40
2023-03-17T02:50:31.103Z,5.30
2023-03-17T02:52:59.023Z,5.40
2023-03-17T02:55:27.854Z,5.50
2023-03-17T02:57:55.317Z,5.40
2023-03-17T03:00:23.728Z,5.40
2023-03-17T03:07:12.186Z,5.40
2023-03-17T03:09:39.386Z,5.30
2023-03-17T03:12:09.678Z,5.20
2023-03-17T03:14:37.292Z,5.20
2023-03-17T03:17:05.561Z,5.20
2023-03-17T03:19:35.626Z,5.20
2023-03-17T03:22:03.411Z,5.20
2023-03-17T03:29:26.827Z,5.20
2023-03-17T03:31:56.057Z,5.30
2023-03-17T03:34:25.086Z,5.30
2023-03-17T03:36:52.615Z,5.30
2023-03-17T03:39:22.484Z,5.30
2023-03-17T03:41:50.296Z,5.20
2023-03-17T03:44:19.683Z,5.20
2023-03-17T03:51:58.872Z,5.20
2023-03-17T03:54:26.160Z,5.20
2023-03-17T03:56:58.149Z,5.20
2023-03-17T03:59:31.501Z,5.40
2023-03-17T04:02:33.908Z,5.50
2023-03-17T04:05:12.452Z,5.50
2023-03-17T04:07:42.995Z,5.50
2023-03-17T04:12:54.132Z,5.40
2023-03-17T04:15:24.528Z,5.30
2023-03-17T04:17:55.136Z,5.30
2023-03-17T04:20:27.444Z,5.20
2023-03-17T04:22:57.070Z,5.00
2023-03-17T04:25:24.731Z,4.90
2023-03-17T04:27:59.041Z,4.80
2023-03-17T04:35:31.100Z,4.80
2023-03-17T04:38:04.572Z,4.90
2023-03-17T04:40:41.232Z,4.90
2023-03-17T04:43:09.680Z,4.90
2023-03-17T04:45:48.353Z,4.80
2023-03-17T04:48:20.729Z,4.80
2023-03-17T04:50:53.462Z,4.90
2023-03-17T04:53:25.876Z,5.00
2023-03-17T05:00:56.017Z,5.00
2023-03-17T05:03:27.686Z,5.10
2023-03-17T05:05:55.642Z,5.10
2023-03-17T05:08:27.889Z,5.00
2023-03-17T05:10:55.464Z,4.90
2023-03-17T05:13:23.554Z,4.80
2023-03-17T05:15:52.378Z,4.70
2023-03-17T05:22:52.942Z,4.70
2023-03-17T05:25:20.790Z,4.70
2023-03-17T05:28:02.314Z,4.70
2023-03-17T05:30:30.916Z,4.80
2023-03-17T05:32:58.906Z,4.90
2023-03-17T05:35:27.998Z,4.90
2023-03-17T05:37:59.426Z,4.80
2023-03-17T05:43:22.548Z,4.80
2023-03-17T05:45:50.597Z,4.80
2023-03-17T05:48:20.474Z,4.80
2023-03-17T05:50:50.392Z,4.80
2023-03-17T05:53:18.128Z,4.90
2023-03-17T05:55:45.831Z,5.00
2023-03-17T05:58:25.772Z,4.90
2023-03-17T06:00:53.754Z,4.80
2023-03-17T06:08:33.870Z,4.90
2023-03-17T06:11:14.545Z,4.80
2023-03-17T06:13:56.341Z,4.80
2023-03-17T06:16:35.323Z,4.70
2023-03-17T06:19:12.183Z,4.70
2023-03-17T06:22:00.449Z,4.70
2023-03-17T06:24:55.458Z,4.90
2023-03-17T06:27:37.676Z,4.90
2023-03-17T06:30:23.455Z,4.80
2023-03-17T06:32:58.798Z,5.00
2023-03-17T06:40:28.281Z,5.20
2023-03-17T06:42:56.092Z,5.40
2023-03-17T06:45:23.671Z,5.50
2023-03-17T06:47:50.884Z,5.70
2023-03-17T06:50:18.381Z,5.80
2023-03-17T06:52:46.948Z,6.00
2023-03-17T06:55:15.623Z,6.00
2023-03-17T07:05:30.923Z,5.90
2023-03-17T07:08:05.802Z,6.10
2023-03-17T07:10:33.407Z,6.30
2023-03-17T07:13:10.054Z,6.50
2023-03-17T07:15:43.844Z,6.60
2023-03-17T07:18:15.198Z,6.60
2023-03-17T07:20:45.873Z,6.70
2023-03-17T07:25:52.092Z,6.90
2023-03-17T07:28:21.387Z,6.80
2023-03-17T07:30:48.732Z,7.00
2023-03-17T07:33:26.424Z,7.10
2023-03-17T07:36:02.323Z,7.20
2023-03-17T07:38:32.139Z,7.20
2023-03-17T07:41:00.428Z,7.40
2023-03-17T07:43:32.034Z,7.40
2023-03-17T07:51:15.430Z,7.40
2023-03-17T07:53:46.629Z,7.50
2023-03-17T07:56:17.723Z,7.60
2023-03-17T07:58:47.582Z,7.60
2023-03-17T08:01:16.243Z,7.70
2023-03-17T08:03:43.598Z,7.80
2023-03-17T08:06:16.394Z,8.00
2023-03-17T08:11:41.864Z,8.40
2023-03-17T08:14:10.787Z,8.60
2023-03-17T08:16:41.023Z,8.60
2023-03-17T08:19:24.456Z,8.70
2023-03-17T08:21:51.653Z,9.00
2023-03-17T08:24:22.021Z,9.10
2023-03-17T08:27:02.181Z,9.10
2023-03-17T08:32:09.901Z,9.20
2023-03-17T08:34:37.235Z,9.50
2023-03-17T08:37:04.953Z,9.60
2023-03-17T08:39:42.009Z,9.80
2023-03-17T08:42:15.114Z,10.00
2023-03-17T08:44:47.730Z,10.20
2023-03-17T08:47:19.326Z,10.50
2023-03-17T08:50:00.032Z,10.70
2023-03-17T08:57:30.441Z,10.90
2023-03-17T08:59:58.341Z,11.20
2023-03-17T09:02:26.404Z,11.30
2023-03-17T09:04:54.137Z,11.40
2023-03-17T09:07:23.690Z,11.40
2023-03-17T09:09:51.450Z,11.50
2023-03-17T09:12:19.091Z,11.70
2023-03-17T09:14:51.791Z,11.90
2023-03-17T09:22:29.720Z,11.90
2023-03-17T09:24:57.539Z,11.90
2023-03-17T09:27:24.972Z,11.90
2023-03-17T09:29:57.792Z,11.90
2023-03-17T09:32:32.217Z,11.90
2023-03-17T09:35:00.791Z,12.10
2023-03-17T09:37:37.343Z,12.00
2023-03-17T09:47:21.482Z,12.00
2023-03-17T09:49:53.398Z,12.00
2023-03-17T09:52:30.333Z,12.00
2023-03-17T09:54:59.299Z,12.00
2023-03-17T09:57:32.773Z,12.00
2023-03-17T10:00:06.362Z,12.00
2023-03-17T10:02:46.229Z,12.10
2023-03-17T10:10:15.811Z,12.00
2023-03-17T10:12:49.872Z,12.10
2023-03-17T10:15:22.308Z,12.40
2023-03-17T10:17:52.020Z,12.60
2023-03-17T10:20:29.421Z,12.70
2023-03-17T10:22:59.540Z,12.80
2023-03-17T10:25:31.558Z,13.00
2023-03-17T10:33:02.573Z,13.00
2023-03-17T10:35:35.371Z,12.90
2023-03-17T10:38:14.767Z,13.00
2023-03-17T10:40:47.517Z,13.10
2023-03-17T10:43:20.371Z,13.20
2023-03-17T10:46:01.054Z,13.20
2023-03-17T10:48:30.961Z,13.30
2023-03-17T10:56:03.685Z,13.50
2023-03-17T10:58:38.020Z,13.70
2023-03-17T11:01:16.802Z,13.80
2023-03-17T11:03:44.410Z,13.80
2023-03-17T11:06:14.768Z,13.80
2023-03-17T11:08:48.462Z,13.80
2023-03-17T11:11:38.074Z,13.70
2023-03-17T11:14:18.719Z,13.50
2023-03-17T11:22:04.025Z,13.40
2023-03-17T11:24:33.706Z,13.60
2023-03-17T11:27:25.477Z,13.80
2023-03-17T11:30:22.046Z,13.80
2023-03-17T11:33:02.725Z,13.80
2023-03-17T11:35:43.652Z,14.10
2023-03-17T11:44:37.533Z,14.40
2023-03-17T11:47:32.665Z,14.40
2023-03-17T11:50:14.786Z,14.40
2023-03-17T11:52:58.103Z,14.40
2023-03-17T11:55:48.890Z,14.60
2023-03-17T11:58:29.860Z,14.70
2023-03-17T12:01:22.054Z,14.80
2023-03-17T12:09:02.948Z,14.60
2023-03-17T12:11:44.710Z,14.30
2023-03-17T12:14:30.007Z,14.60
2023-03-17T12:17:13.282Z,14.60
2023-03-17T12:19:56.263Z,14.80
2023-03-17T12:22:34.192Z,14.80
2023-03-17T12:28:33.651Z,15.20
2023-03-17T12:31:07.608Z,15.20
2023-03-17T12:33:50.486Z,15.30
2023-03-17T12:36:30.837Z,15.40
2023-03-17T12:39:24.385Z,15.40
2023-03-17T12:42:21.494Z,15.30
2023-03-17T12:45:15.897Z,15.30
2023-03-17T12:53:21.550Z,14.80
2023-03-17T12:55:55.397Z,14.80
2023-03-17T12:58:33.534Z,14.70
2023-03-17T13:01:15.190Z,14.60
2023-03-17T13:03:58.618Z,14.60
2023-03-17T13:06:51.926Z,14.70
2023-03-17T13:15:33.289Z,14.50
2023-03-17T13:18:39.166Z,14.40
2023-03-17T13:21:19.125Z,14.30
2023-03-17T13:23:53.999Z,14.10
2023-03-17T13:27:00.228Z,14.00
2023-03-17T13:29:42.853Z,14.00
2023-03-17T13:38:44.001Z,14.10
2023-03-17T13:41:39.407Z,14.00
2023-03-17T13:44:45.842Z,13.90
2023-03-17T13:47:41.986Z,13.90
2023-03-17T13:50:19.979Z,14.00
2023-03-17T13:52:53.436Z,13.90
2023-03-17T14:01:15.349Z,13.90
2023-03-17T14:03:48.539Z,14.10
2023-03-17T14:06:20.271Z,14.20
2023-03-17T14:08:56.557Z,14.20
2023-03-17T14:11:35.026Z,14.20
2023-03-17T14:14:32.028Z,14.20
2023-03-17T14:17:18.924Z,14.30
2023-03-17T14:24:05.189Z,14.40
2023-03-17T14:26:34.162Z,14.50
2023-03-17T14:29:04.833Z,14.70
2023-03-17T14:31:36.562Z,14.70
2023-03-17T14:34:16.655Z,14.70
2023-03-17T14:36:52.614Z,14.70
2023-03-17T14:39:47.370Z,14.70
2023-03-17T14:47:31.258Z,15.10
2023-03-17T14:50:04.340Z,15.10
2023-03-17T14:52:42.377Z,15.20
2023-03-17T14:55:16.491Z,15.30
2023-03-17T14:57:53.566Z,15.50
2023-03-17T15:00:49.529Z,15.40
2023-03-17T15:06:22.224Z,15.40
2023-03-17T15:08:52.690Z,15.20
2023-03-17T15:11:26.881Z,15.40
2023-03-17T15:14:07.356Z,15.40
2023-03-17T15:16:41.774Z,15.40
2023-03-17T15:19:20.433Z,15.40
2023-03-17T15:22:29.120Z,15.50
2023-03-17T15:32:26.886Z,15.50
2023-03-17T15:35:17.644Z,15.60
2023-03-17T15:37:51.025Z,15.70
2023-03-17T15:40:24.507Z,15.60
2023-03-17T15:42:52.795Z,15.70
2023-03-17T15:45:34.998Z,15.70
2023-03-17T15:48:03.419Z,15.70
2023-03-17T15:54:52.275Z,15.60
2023-03-17T15:57:19.604Z,15.70
2023-03-17T15:59:49.298Z,15.70
2023-03-17T16:02:32.457Z,15.60
2023-03-17T16:05:18.756Z,15.60
2023-03-17T16:07:50.772Z,15.50
2023-03-17T16:10:27.120Z,15.60
2023-03-17T16:17:57.409Z,15.50
2023-03-17T16:20:30.056Z,15.50
2023-03-17T16:23:12.236Z,15.60
2023-03-17T16:25:43.069Z,15.50
2023-03-17T16:28:20.591Z,15.60
2023-03-17T16:30:50.050Z,15.40
2023-03-17T16:36:17.018Z,15.30
2023-03-17T16:38:45.620Z,15.10
2023-03-17T16:41:23.661Z,15.10
2023-03-17T16:43:56.045Z,15.20
2023-03-17T16:46:37.239Z,15.10
2023-03-17T16:49:07.461Z,15.10
2023-03-17T16:51:43.369Z,15.00
2023-03-17T16:58:25.112Z,15.10
2023-03-17T17:00:57.065Z,14.90
2023-03-17T17:03:26.266Z,14.90
2023-03-17T17:06:00.120Z,14.90
2023-03-17T17:08:29.359Z,14.70
2023-03-17T17:10:56.868Z,14.70
2023-03-17T17:21:33.669Z,14.40
2023-03-17T17:24:06.541Z,14.30
2023-03-17T17:26:36.627Z,14.30
2023-03-17T17:29:04.639Z,14.30
2023-03-17T17:31:33.486Z,14.10
2023-03-17T17:34:05.357Z,13.90
2023-03-17T17:36:38.841Z,13.80
2023-03-17T17:41:49.846Z,13.80
2023-03-17T17:44:19.506Z,14.10
2023-03-17T17:46:50.083Z,14.20
2023-03-17T17:49:19.030Z,14.40
2023-03-17T17:51:52.218Z,14.50
2023-03-17T17:54:26.742Z,14.60
2023-03-17T18:01:22.765Z,14.40
2023-03-17T18:03:52.179Z,14.30
2023-03-17T18:06:19.940Z,14.30
2023-03-17T18:08:54.908Z,14.40
2023-03-17T18:11:43.418Z,14.40
2023-03-17T18:14:12.304Z,14.20
2023-03-17T18:22:30.073Z,14.20
2023-03-17T18:24:59.501Z,14.10
2023-03-17T18:27:27.403Z,14.10
2023-03-17T18:30:12.201Z,13.90
2023-03-17T18:32:41.390Z,13.90
2023-03-17T18:35:16.454Z,13.90
2023-03-17T18:37:59.153Z,13.90
2023-03-17T18:45:49.924Z,13.80
2023-03-17T18:48:21.127Z,13.60
2023-03-17T18:50:56.042Z,13.70
2023-03-17T18:53:27.310Z,13.60
2023-03-17T18:55:55.091Z,13.60
2023-03-17T18:58:37.112Z,13.50
2023-03-17T19:01:06.200Z,13.50
2023-03-17T19:03:46.696Z,13.50
2023-03-17T19:11:56.843Z,13.60
2023-03-17T19:14:24.220Z,13.70
2023-03-17T19:17:03.052Z,13.60
2023-03-17T19:20:00.500Z,13.60
2023-03-17T19:22:33.428Z,13.60
2023-03-17T19:25:03.967Z,13.70
2023-03-17T19:27:39.164Z,13.80
2023-03-17T19:30:10.658Z,13.80
2023-03-17T19:38:04.495Z,13.80
2023-03-17T19:40:35.620Z,13.60
2023-03-17T19:43:08.591Z,13.70
2023-03-17T19:45:59.882Z,13.90
2023-03-17T19:48:32.153Z,13.90
2023-03-17T19:51:11.120Z,13.90
2023-03-17T19:53:42.999Z,14.10
2023-03-17T19:56:12.665Z,14.00
2023-03-17T20:03:31.846Z,14.20
2023-03-17T20:06:12.699Z,14.10
2023-03-17T20:08:48.624Z,14.10
2023-03-17T20:11:22.292Z,14.10
2023-03-17T20:13:50.953Z,14.20
2023-03-17T20:16:19.566Z,14.20
2023-03-17T20:18:52.304Z,14.20
2023-03-17T20:21:33.647Z,14.30
2023-03-17T20:29:10.221Z,14.20
2023-03-17T20:31:44.639Z,14.20
2023-03-17T20:34:18.575Z,14.20
2023-03-17T20:36:48.636Z,14.30
2023-03-17T20:39:30.418Z,14.20
2023-03-17T20:42:02.444Z,14.20
2023-03-17T20:44:32.944Z,14.20
2023-03-17T20:50:01.707Z,14.20
2023-03-17T20:52:38.034Z,14.30
2023-03-17T20:55:20.747Z,14.20
2023-03-17T20:57:58.201Z,14.10
2023-03-17T21:00:31.592Z,14.00
2023-03-17T21:03:02.130Z,14.00
2023-03-17T21:05:32.455Z,14.00
2023-03-17T21:08:08.277Z,14.00
2023-03-17T21:14:33.140Z,13.90
2023-03-17T21:17:04.203Z,13.90
2023-03-17T21:19:34.335Z,13.90
2023-03-17T21:24:55.946Z,13.70
2023-03-17T21:27:32.661Z,13.60
2023-03-17T21:30:07.223Z,13.70
2023-03-17T21:32:40.911Z,14.00
2023-03-17T21:39:37.601Z,14.40
2023-03-17T21:42:09.215Z,14.30
2023-03-17T21:44:37.326Z,14.30
2023-03-17T21:47:08.890Z,14.10
2023-03-17T21:49:38.669Z,14.20
2023-03-17T21:52:06.730Z,14.30
2023-03-17T21:54:39.215Z,14.40
2023-03-17T21:59:53.800Z,14.50
2023-03-17T22:02:21.443Z,14.50
2023-03-17T22:04:49.118Z,14.50
2023-03-17T22:07:25.963Z,14.40
2023-03-17T22:09:57.004Z,14.40
2023-03-17T22:12:28.422Z,14.30
2023-03-17T22:14:57.927Z,14.40
2023-03-17T22:22:03.913Z,14.40
2023-03-17T22:24:34.044Z,14.60
2023-03-17T22:27:01.636Z,14.40
2023-03-17T22:29:30.313Z,14.30
2023-03-17T22:31:57.637Z,14.30
2023-03-17T22:34:26.292Z,14.20
2023-03-17T22:36:53.686Z,14.20
2023-03-17T22:42:22.232Z,14.00
2023-03-17T22:44:52.060Z,13.90
2023-03-17T22:47:19.605Z,14.00
2023-03-17T22:49:47.309Z,14.10
2023-03-17T22:52:15.907Z,14.10
2023-03-17T22:54:46.120Z,14.20
2023-03-17T22:57:14.228Z,14.20
2023-03-17T23:02:29.585Z,14.20
2023-03-17T23:04:57.501Z,14.10
2023-03-17T23:07:29.187Z,14.10
2023-03-17T23:09:57.679Z,13.90
2023-03-17T23:12:27.942Z,13.60
2023-03-17T23:14:57.060Z,13.80
2023-03-17T23:17:25.316Z,14.00
2023-03-17T23:24:53.507Z,13.90
2023-03-17T23:27:20.420Z,13.60
2023-03-17T23:29:48.821Z,13.40
2023-03-17T23:32:16.502Z,13.40
2023-03-17T23:34:46.250Z,13.60
2023-03-17T23:37:13.676Z,13.50
2023-03-17T23:39:41.051Z,13.50
2023-03-17T23:47:14.866Z,13.40
2023-03-17T23:49:42.503Z,13.40
2023-03-17T23:52:12.022Z,13.50
2023-03-17T23:54:40.052Z,13.30
2023-03-17T23:57:07.383Z,13.10
2023-03-17T23:59:35.864Z,13.00
